sensor_id;sensor_type;location;lat;lon;timestamp;pressure;altitude;pressure_sealevel;temperature;humidity
77149;BME280;66122;47.130;16.844;2024-03-29T00:03:26;98932.94;;;7.47;100.00
77149;BME280;66122;47.130;16.844;2024-03-29T00:13:29;98927.91;;;7.27;100.00
77149;BME280;66122;47.130;16.844;2024-03-29T00:23:30;98956.72;;;6.97;100.00
77149;BME280;66122;47.130;16.844;2024-03-29T00:33:32;98949.88;;;6.93;100.00
77149;BME280;66122;47.130;16.844;2024-03-29T00:43:33;98951.06;;;6.70;100.00
77149;BME280;66122;47.130;16.844;2024-03-29T00:53:37;98990.94;;;6.80;100.00
77149;BME280;66122;47.130;16.844;2024-03-29T01:03:40;99022.03;;;6.90;100.00
77149;BME280;66122;47.130;16.844;2024-03-29T01:13:42;99047.00;;;6.99;100.00
77149;BME280;66122;47.130;16.844;2024-03-29T01:23:44;99055.78;;;6.99;100.00
77149;BME280;66122;47.130;16.844;2024-03-29T01:33:45;99072.75;;;7.11;100.00
77149;BME280;66122;47.130;16.844;2024-03-29T01:43:47;99093.13;;;7.07;100.00
77149;BME280;66122;47.130;16.844;2024-03-29T01:53:50;99089.25;;;7.15;100.00
77149;BME280;66122;47.130;16.844;2024-03-29T02:03:52;99084.63;;;7.20;100.00
77149;BME280;66122;47.130;16.844;2024-03-29T02:13:56;99081.03;;;7.03;100.00
77149;BME280;66122;47.130;16.844;2024-03-29T02:24:07;99092.00;;;6.77;100.00
77149;BME280;66122;47.130;16.844;2024-03-29T02:34:12;99097.69;;;6.70;100.00
77149;BME280;66122;47.130;16.844;2024-03-29T02:44:13;99101.78;;;6.75;100.00
77149;BME280;66122;47.130;16.844;2024-03-29T02:54:17;99109.53;;;6.95;100.00
77149;BME280;66122;47.130;16.844;2024-03-29T03:04:22;99112.19;;;6.95;100.00
77149;BME280;66122;47.130;16.844;2024-03-29T03:14:23;99093.41;;;6.67;100.00
77149;BME280;66122;47.130;16.844;2024-03-29T03:24:25;99121.75;;;6.62;100.00
77149;BME280;66122;47.130;16.844;2024-03-29T03:34:27;99113.91;;;6.42;100.00
77149;BME280;66122;47.130;16.844;2024-03-29T03:44:28;99115.44;;;6.10;100.00
77149;BME280;66122;47.130;16.844;2024-03-29T03:54:29;99126.59;;;5.96;100.00
77149;BME280;66122;47.130;16.844;2024-03-29T04:04:32;99149.47;;;5.94;100.00
77149;BME280;66122;47.130;16.844;2024-03-29T04:14:34;99174.41;;;5.84;100.00
77149;BME280;66122;47.130;16.844;2024-03-29T04:24:35;99171.22;;;5.77;100.00
77149;BME280;66122;47.130;16.844;2024-03-29T04:34:37;99170.63;;;5.71;100.00
77149;BME280;66122;47.130;16.844;2024-03-29T04:44:38;99195.13;;;5.71;100.00
77149;BME280;66122;47.130;16.844;2024-03-29T04:54:40;99210.72;;;5.76;100.00
77149;BME280;66122;47.130;16.844;2024-03-29T05:04:42;99230.59;;;6.03;100.00
77149;BME280;66122;47.130;16.844;2024-03-29T05:14:44;99216.13;;;6.32;100.00
77149;BME280;66122;47.130;16.844;2024-03-29T05:24:45;99219.13;;;6.81;100.00
77149;BME280;66122;47.130;16.844;2024-03-29T05:34:47;99228.94;;;7.32;100.00
77149;BME280;66122;47.130;16.844;2024-03-29T05:44:48;99227.59;;;8.09;100.00
77149;BME280;66122;47.130;16.844;2024-03-29T05:54:50;99219.72;;;8.42;100.00
77149;BME280;66122;47.130;16.844;2024-03-29T06:04:52;99193.56;;;8.69;100.00
77149;BME280;66122;47.130;16.844;2024-03-29T06:14:53;99193.50;;;8.71;100.00
77149;BME280;66122;47.130;16.844;2024-03-29T06:25:13;99181.41;;;9.28;100.00
77149;BME280;66122;47.130;16.844;2024-03-29T06:35:16;99195.59;;;9.57;100.00
77149;BME280;66122;47.130;16.844;2024-03-29T06:45:18;99216.91;;;10.28;100.00
77149;BME280;66122;47.130;16.844;2024-03-29T06:55:20;99214.25;;;10.42;97.06
77149;BME280;66122;47.130;16.844;2024-03-29T07:05:22;99227.66;;;10.39;97.81
77149;BME280;66122;47.130;16.844;2024-03-29T07:15:24;99221.16;;;10.44;100.00
77149;BME280;66122;47.130;16.844;2024-03-29T07:25:26;99201.47;;;11.30;96.67
77149;BME280;66122;47.130;16.844;2024-03-29T07:35:27;99189.97;;;12.09;95.47
77149;BME280;66122;47.130;16.844;2024-03-29T07:45:29;99183.53;;;12.49;91.07
77149;BME280;66122;47.130;16.844;2024-03-29T07:55:31;99185.84;;;12.67;88.68
77149;BME280;66122;47.130;16.844;2024-03-29T08:05:32;99168.09;;;13.04;82.29
77149;BME280;66122;47.130;16.844;2024-03-29T08:15:35;99154.69;;;13.64;80.75
77149;BME280;66122;47.130;16.844;2024-03-29T08:25:37;99170.44;;;13.78;81.13
77149;BME280;66122;47.130;16.844;2024-03-29T08:35:38;99150.91;;;14.24;81.70
77149;BME280;66122;47.130;16.844;2024-03-29T08:45:44;99154.28;;;14.81;79.54
77149;BME280;66122;47.130;16.844;2024-03-29T08:55:46;99135.03;;;15.74;74.92
77149;BME280;66122;47.130;16.844;2024-03-29T09:05:50;99123.25;;;16.37;71.39
77149;BME280;66122;47.130;16.844;2024-03-29T09:15:52;99117.56;;;16.21;71.14
77149;BME280;66122;47.130;16.844;2024-03-29T09:25:56;99117.69;;;16.99;66.78
77149;BME280;66122;47.130;16.844;2024-03-29T09:35:59;99055.66;;;17.42;63.77
77149;BME280;66122;47.130;16.844;2024-03-29T09:46:01;99109.25;;;18.18;65.53
77149;BME280;66122;47.130;16.844;2024-03-29T09:56:04;99098.75;;;17.87;62.80
77149;BME280;66122;47.130;16.844;2024-03-29T10:06:07;99069.84;;;17.81;61.03
77149;BME280;66122;47.130;16.844;2024-03-29T10:16:14;99078.00;;;17.89;62.69
77149;BME280;66122;47.130;16.844;2024-03-29T10:26:19;99062.66;;;18.73;61.78
77149;BME280;66122;47.130;16.844;2024-03-29T10:36:21;99057.91;;;19.03;59.18
77149;BME280;66122;47.130;16.844;2024-03-29T10:46:23;99063.06;;;18.79;58.98
77149;BME280;66122;47.130;16.844;2024-03-29T10:56:26;99048.84;;;19.57;57.61
77149;BME280;66122;47.130;16.844;2024-03-29T11:06:28;99031.66;;;18.61;60.04
77149;BME280;66122;47.130;16.844;2024-03-29T11:16:32;99027.78;;;18.46;60.70
77149;BME280;66122;47.130;16.844;2024-03-29T11:26:35;98999.34;;;18.53;62.62
77149;BME280;66122;47.130;16.844;2024-03-29T11:36:39;99010.34;;;18.32;61.39
77149;BME280;66122;47.130;16.844;2024-03-29T11:46:42;99005.56;;;18.54;61.65
77149;BME280;66122;47.130;16.844;2024-03-29T11:56:44;99009.94;;;19.26;59.88
77149;BME280;66122;47.130;16.844;2024-03-29T12:06:45;99003.50;;;19.36;57.90
77149;BME280;66122;47.130;16.844;2024-03-29T12:16:47;99009.84;;;19.35;57.18
77149;BME280;66122;47.130;16.844;2024-03-29T12:26:49;98979.38;;;19.01;59.79
77149;BME280;66122;47.130;16.844;2024-03-29T12:36:51;98990.56;;;19.40;59.88
77149;BME280;66122;47.130;16.844;2024-03-29T12:46:53;99003.13;;;18.96;61.05
77149;BME280;66122;47.130;16.844;2024-03-29T12:56:54;98995.63;;;19.43;60.09
77149;BME280;66122;47.130;16.844;2024-03-29T13:06:57;98983.22;;;19.68;57.73
77149;BME280;66122;47.130;16.844;2024-03-29T13:16:59;98983.19;;;19.94;56.98
77149;BME280;66122;47.130;16.844;2024-03-29T13:27:01;98994.53;;;20.63;54.31
77149;BME280;66122;47.130;16.844;2024-03-29T13:37:03;98986.97;;;19.31;59.20
77149;BME280;66122;47.130;16.844;2024-03-29T13:47:05;99008.47;;;18.15;62.76
77149;BME280;66122;47.130;16.844;2024-03-29T13:57:07;98989.94;;;17.94;65.29
77149;BME280;66122;47.130;16.844;2024-03-29T14:07:09;98969.06;;;17.88;66.54
77149;BME280;66122;47.130;16.844;2024-03-29T14:17:12;98963.72;;;17.88;67.78
77149;BME280;66122;47.130;16.844;2024-03-29T14:27:14;98958.34;;;17.88;68.93
77149;BME280;66122;47.130;16.844;2024-03-29T14:37:15;98943.97;;;17.89;68.15
77149;BME280;66122;47.130;16.844;2024-03-29T14:47:17;98943.84;;;18.09;68.38
77149;BME280;66122;47.130;16.844;2024-03-29T14:57:19;98923.19;;;18.19;66.78
77149;BME280;66122;47.130;16.844;2024-03-29T15:07:23;98930.84;;;18.14;66.70
77149;BME280;66122;47.130;16.844;2024-03-29T15:17:25;98918.81;;;18.18;66.15
77149;BME280;66122;47.130;16.844;2024-03-29T15:27:27;98929.28;;;17.93;66.92
77149;BME280;66122;47.130;16.844;2024-03-29T15:37:48;98924.00;;;17.74;66.43
77149;BME280;66122;47.130;16.844;2024-03-29T15:47:50;98923.50;;;17.61;66.86
77149;BME280;66122;47.130;16.844;2024-03-29T15:57:52;98930.00;;;17.49;67.17
77149;BME280;66122;47.130;16.844;2024-03-29T16:07:53;98922.59;;;17.24;70.32
77149;BME280;66122;47.130;16.844;2024-03-29T16:17:55;98914.91;;;17.11;70.45
77149;BME280;66122;47.130;16.844;2024-03-29T16:27:56;98930.97;;;17.01;69.64
77149;BME280;66122;47.130;16.844;2024-03-29T16:37:58;98936.63;;;16.98;69.39
77149;BME280;66122;47.130;16.844;2024-03-29T16:48:00;98911.56;;;16.80;69.67
77149;BME280;66122;47.130;16.844;2024-03-29T16:58:02;98939.59;;;16.66;70.78
77149;BME280;66122;47.130;16.844;2024-03-29T17:08:04;98946.34;;;16.42;71.87
77149;BME280;66122;47.130;16.844;2024-03-29T17:18:05;98933.78;;;16.32;71.85
77149;BME280;66122;47.130;16.844;2024-03-29T17:28:07;98918.88;;;16.20;71.81
77149;BME280;66122;47.130;16.844;2024-03-29T17:38:08;98929.72;;;16.38;71.10
77149;BME280;66122;47.130;16.844;2024-03-29T17:48:10;98913.22;;;16.42;70.31
77149;BME280;66122;47.130;16.844;2024-03-29T17:58:11;98920.84;;;16.18;70.95
77149;BME280;66122;47.130;16.844;2024-03-29T18:08:13;98912.66;;;16.29;70.08
77149;BME280;66122;47.130;16.844;2024-03-29T18:18:15;98932.63;;;16.16;70.39
77149;BME280;66122;47.130;16.844;2024-03-29T18:28:17;98920.81;;;16.09;69.86
77149;BME280;66122;47.130;16.844;2024-03-29T18:38:19;98928.44;;;16.13;69.74
77149;BME280;66122;47.130;16.844;2024-03-29T18:48:20;98929.00;;;16.26;67.90
77149;BME280;66122;47.130;16.844;2024-03-29T18:58:24;98927.03;;;16.38;66.57
77149;BME280;66122;47.130;16.844;2024-03-29T19:08:25;98922.69;;;16.47;65.73
77149;BME280;66122;47.130;16.844;2024-03-29T19:18:27;98927.47;;;16.53;65.61
77149;BME280;66122;47.130;16.844;2024-03-29T19:28:29;98894.66;;;16.51;65.20
77149;BME280;66122;47.130;16.844;2024-03-29T19:38:31;98925.66;;;16.72;64.52
77149;BME280;66122;47.130;16.844;2024-03-29T19:48:32;98902.69;;;16.99;63.76
77149;BME280;66122;47.130;16.844;2024-03-29T19:58:35;98901.13;;;16.87;63.23
77149;BME280;66122;47.130;16.844;2024-03-29T20:08:37;98918.03;;;16.58;64.51
77149;BME280;66122;47.130;16.844;2024-03-29T20:18:40;98929.59;;;16.49;65.06
77149;BME280;66122;47.130;16.844;2024-03-29T20:28:41;98927.03;;;16.38;65.38
77149;BME280;66122;47.130;16.844;2024-03-29T20:38:44;98929.44;;;16.31;65.74
77149;BME280;66122;47.130;16.844;2024-03-29T20:48:45;98922.94;;;16.24;66.13
77149;BME280;66122;47.130;16.844;2024-03-29T20:58:47;98919.41;;;16.14;67.15
77149;BME280;66122;47.130;16.844;2024-03-29T21:08:49;98908.41;;;15.98;67.58
77149;BME280;66122;47.130;16.844;2024-03-29T21:18:50;98931.75;;;15.96;68.48
77149;BME280;66122;47.130;16.844;2024-03-29T21:28:52;98935.06;;;15.79;70.24
77149;BME280;66122;47.130;16.844;2024-03-29T21:38:53;98943.47;;;15.65;70.41
77149;BME280;66122;47.130;16.844;2024-03-29T21:48:55;98961.34;;;15.74;70.30
77149;BME280;66122;47.130;16.844;2024-03-29T21:58:56;98966.38;;;16.07;66.98
77149;BME280;66122;47.130;16.844;2024-03-29T22:08:58;98970.81;;;15.87;68.58
77149;BME280;66122;47.130;16.844;2024-03-29T22:18:59;98971.06;;;15.75;69.98
77149;BME280;66122;47.130;16.844;2024-03-29T22:29:01;98939.78;;;15.56;71.19
77149;BME280;66122;47.130;16.844;2024-03-29T22:39:04;98941.66;;;15.44;73.29
77149;BME280;66122;47.130;16.844;2024-03-29T22:49:06;98915.22;;;15.62;70.67
77149;BME280;66122;47.130;16.844;2024-03-29T22:59:07;98908.53;;;15.87;68.13
77149;BME280;66122;47.130;16.844;2024-03-29T23:09:09;98902.78;;;16.01;65.41
77149;BME280;66122;47.130;16.844;2024-03-29T23:19:11;98903.34;;;16.14;63.97
77149;BME280;66122;47.130;16.844;2024-03-29T23:29:13;98921.66;;;16.28;63.11
77149;BME280;66122;47.130;16.844;2024-03-29T23:39:14;98926.72;;;16.22;63.34
77149;BME280;66122;47.130;16.844;2024-03-29T23:49:16;98951.25;;;16.27;62.83
77149;BME280;66122;47.130;16.844;2024-03-29T23:59:17;98957.25;;;16.10;64.41
